createdAt,value
2022-10-17T00:00:19.458Z,13.14
2022-10-17T00:01:19.530Z,13.08
2022-10-17T00:02:19.446Z,13.06
2022-10-17T00:03:19.438Z,13.05
2022-10-17T00:04:19.465Z,13.08
2022-10-17T00:05:19.416Z,12.98
2022-10-17T00:06:19.398Z,13.01
2022-10-17T00:07:19.426Z,12.93
2022-10-17T00:08:19.396Z,12.90
2022-10-17T00:09:19.374Z,13.09
2022-10-17T00:10:19.410Z,13.05
2022-10-17T00:11:19.358Z,12.95
2022-10-17T00:12:19.348Z,12.91
2022-10-17T00:13:19.417Z,13.06
2022-10-17T00:14:19.337Z,12.93
2022-10-17T00:15:19.328Z,13.04
2022-10-17T00:16:19.340Z,13.06
2022-10-17T00:17:19.313Z,13.06
2022-10-17T00:18:19.306Z,13.02
2022-10-17T00:19:19.300Z,13.04
2022-10-17T00:20:19.282Z,13.01
2022-10-17T00:21:19.283Z,13.05
2022-10-17T00:22:19.284Z,13.02
2022-10-17T00:23:19.257Z,12.99
2022-10-17T00:24:19.246Z,12.88
2022-10-17T00:25:19.237Z,13.04
2022-10-17T00:26:19.226Z,12.91
2022-10-17T00:27:19.251Z,12.95
2022-10-17T00:28:19.211Z,12.86
2022-10-17T00:29:19.206Z,12.81
2022-10-17T00:30:19.204Z,12.96
2022-10-17T00:31:19.183Z,12.81
2022-10-17T00:32:19.184Z,12.88
2022-10-17T00:33:19.204Z,12.86
2022-10-17T00:34:19.164Z,12.86
2022-10-17T00:35:19.147Z,12.83
2022-10-17T00:36:19.148Z,12.86
2022-10-17T00:37:19.141Z,12.83
2022-10-17T00:38:19.162Z,12.88
2022-10-17T00:39:19.120Z,12.83
2022-10-17T00:40:19.113Z,12.79
2022-10-17T00:41:19.155Z,12.86
2022-10-17T00:42:19.096Z,12.88
2022-10-17T00:43:19.090Z,12.86
2022-10-17T00:44:19.109Z,12.95
2022-10-17T00:45:19.075Z,12.86
2022-10-17T00:46:19.071Z,12.88
2022-10-17T00:47:19.059Z,12.90
2022-10-17T00:48:22.523Z,12.83
2022-10-17T00:49:19.043Z,12.93
2022-10-17T00:50:19.056Z,12.81
2022-10-17T00:51:19.033Z,12.69
2022-10-17T00:52:19.019Z,12.73
2022-10-17T00:53:19.012Z,12.88
2022-10-17T00:54:19.003Z,12.86
2022-10-17T00:55:18.981Z,12.87
2022-10-17T00:56:18.995Z,12.80
2022-10-17T00:57:18.982Z,12.77
2022-10-17T00:58:18.959Z,12.73
2022-10-17T00:59:18.957Z,12.79
2022-10-17T01:00:18.962Z,12.86
2022-10-17T01:01:18.945Z,12.86
2022-10-17T01:02:18.936Z,12.93
2022-10-17T01:03:18.939Z,12.81
2022-10-17T01:04:18.918Z,12.79
2022-10-17T01:05:18.926Z,12.83
2022-10-17T01:06:18.908Z,12.80
2022-10-17T01:07:18.938Z,12.84
2022-10-17T01:08:18.880Z,12.90
2022-10-17T01:09:18.872Z,12.86
2022-10-17T01:10:18.980Z,12.86
2022-10-17T01:11:18.848Z,12.81
2022-10-17T01:12:18.884Z,12.81
2022-10-17T01:13:18.841Z,12.86
2022-10-17T01:14:18.831Z,12.81
2022-10-17T01:15:18.819Z,12.84
2022-10-17T01:16:18.834Z,12.83
2022-10-17T01:17:18.808Z,12.77
2022-10-17T01:18:18.798Z,12.76
2022-10-17T01:19:18.861Z,12.80
2022-10-17T01:20:18.789Z,12.62
2022-10-17T01:21:18.777Z,12.54
2022-10-17T01:22:18.799Z,12.63
2022-10-17T01:23:18.764Z,12.58
2022-10-17T01:24:18.760Z,12.59
2022-10-17T01:25:18.755Z,12.54
2022-10-17T01:26:18.755Z,12.53
2022-10-17T01:27:18.724Z,12.54
2022-10-17T01:28:18.729Z,12.50
2022-10-17T01:29:18.709Z,12.50
2022-10-17T01:30:19.210Z,12.54
2022-10-17T01:31:18.700Z,12.53
2022-10-17T01:32:18.683Z,12.44
2022-10-17T01:33:18.687Z,12.36
2022-10-17T01:34:18.655Z,12.33
2022-10-17T01:35:18.649Z,12.38
2022-10-17T01:36:18.666Z,12.44
2022-10-17T01:37:18.630Z,12.36
2022-10-17T01:38:18.628Z,12.35
2022-10-17T01:39:18.612Z,12.35
2022-10-17T01:40:18.603Z,12.40
2022-10-17T01:41:18.617Z,12.21
2022-10-17T01:42:18.604Z,12.21
2022-10-17T01:43:18.590Z,12.11
2022-10-17T01:44:18.598Z,12.11
2022-10-17T01:45:18.564Z,12.04
2022-10-17T01:46:18.564Z,12.08
2022-10-17T01:47:18.575Z,12.05
2022-10-17T01:48:18.547Z,11.97
2022-10-17T01:49:18.544Z,11.96
2022-10-17T01:50:18.530Z,12.04
2022-10-17T01:51:18.514Z,12.14
2022-10-17T01:52:18.513Z,12.17
2022-10-17T01:53:18.538Z,12.23
2022-10-17T01:54:18.489Z,12.23
2022-10-17T01:55:18.486Z,12.25
2022-10-17T01:56:18.477Z,12.33
2022-10-17T01:57:18.470Z,12.17
2022-10-17T01:58:18.460Z,12.17
2022-10-17T01:59:18.476Z,12.18
2022-10-17T02:00:18.449Z,12.23
2022-10-17T02:01:18.521Z,12.10
2022-10-17T02:02:18.434Z,12.15
2022-10-17T02:03:18.426Z,12.11
2022-10-17T02:04:18.417Z,12.17
2022-10-17T02:05:18.438Z,12.11
2022-10-17T02:06:18.396Z,12.18
2022-10-17T02:07:18.396Z,12.11
2022-10-17T02:08:18.388Z,12.11
2022-10-17T02:09:18.380Z,12.23
2022-10-17T02:10:18.362Z,12.22
2022-10-17T02:11:18.371Z,12.17
2022-10-17T02:12:18.344Z,12.23
2022-10-17T02:13:18.336Z,12.15
2022-10-17T02:14:18.344Z,12.18
2022-10-17T02:15:18.322Z,12.22
2022-10-17T02:16:18.342Z,12.05
2022-10-17T02:17:18.313Z,12.04
2022-10-17T02:18:18.343Z,12.07
2022-10-17T02:19:18.319Z,11.96
2022-10-17T02:20:18.295Z,11.89
2022-10-17T02:21:18.270Z,11.79
2022-10-17T02:22:18.264Z,11.70
2022-10-17T02:24:18.276Z,11.49
2022-10-17T02:25:18.268Z,11.43
2022-10-17T02:26:18.263Z,11.49
2022-10-17T02:27:18.218Z,11.38
2022-10-17T02:28:18.295Z,11.34
2022-10-17T02:29:18.218Z,11.28
2022-10-17T02:30:18.215Z,11.31
2022-10-17T02:31:18.233Z,11.34
2022-10-17T02:32:18.214Z,11.31
2022-10-17T02:33:18.183Z,11.31
2022-10-17T02:34:18.168Z,11.23
2022-10-17T02:35:18.184Z,11.20
2022-10-17T02:36:18.183Z,11.19
2022-10-17T02:37:18.168Z,11.19
2022-10-17T02:38:18.166Z,11.20
2022-10-17T02:39:18.138Z,11.18
2022-10-17T02:40:18.247Z,11.19
2022-10-17T02:41:18.249Z,11.16
2022-10-17T02:42:18.128Z,11.22
2022-10-17T02:43:18.122Z,11.22
2022-10-17T02:44:18.093Z,11.23
2022-10-17T02:45:18.083Z,11.28
2022-10-17T02:46:18.078Z,11.40
2022-10-17T02:47:18.064Z,11.31
2022-10-17T02:48:18.059Z,11.33
2022-10-17T02:49:18.069Z,11.30
2022-10-17T02:50:18.074Z,11.33
2022-10-17T02:51:18.038Z,11.36
2022-10-17T02:52:18.038Z,11.31
2022-10-17T02:53:18.028Z,11.38
2022-10-17T02:54:18.015Z,11.46
2022-10-17T02:55:18.047Z,11.40
2022-10-17T02:56:18.054Z,11.55
2022-10-17T02:57:17.985Z,11.55
2022-10-17T02:58:17.975Z,11.51
2022-10-17T02:59:17.958Z,11.45
2022-10-17T03:00:17.949Z,11.38
2022-10-17T03:01:17.995Z,11.41
2022-10-17T03:02:17.997Z,11.46
2022-10-17T03:03:17.943Z,11.41
2022-10-17T03:04:18.081Z,11.46
2022-10-17T03:05:17.961Z,11.51
2022-10-17T03:06:17.913Z,11.37
2022-10-17T03:07:17.912Z,11.37
2022-10-17T03:08:17.892Z,11.28
2022-10-17T03:09:17.881Z,11.19
2022-10-17T03:10:17.880Z,11.18
2022-10-17T03:11:17.890Z,11.13
2022-10-17T03:12:17.952Z,11.03
2022-10-17T03:13:18.646Z,11.03
2022-10-17T03:14:17.843Z,11.00
2022-10-17T03:15:17.847Z,11.04
2022-10-17T03:16:17.825Z,11.11
2022-10-17T03:17:17.813Z,11.15
2022-10-17T03:18:17.830Z,11.05
2022-10-17T03:19:17.793Z,11.18
2022-10-17T03:20:17.800Z,11.16
2022-10-17T03:21:17.778Z,11.20
2022-10-17T03:22:17.779Z,11.31
2022-10-17T03:23:17.764Z,11.23
2022-10-17T03:24:17.827Z,11.22
2022-10-17T03:25:17.771Z,11.34
2022-10-17T03:26:17.751Z,11.30
2022-10-17T03:27:17.743Z,11.23
2022-10-17T03:28:17.748Z,11.31
2022-10-17T03:29:17.722Z,11.33
2022-10-17T03:30:17.736Z,11.18
2022-10-17T03:31:17.719Z,11.19
2022-10-17T03:32:17.693Z,11.16
2022-10-17T03:33:17.683Z,11.15
2022-10-17T03:34:17.678Z,11.20
2022-10-17T03:35:17.677Z,11.11
2022-10-17T03:36:17.697Z,11.13
2022-10-17T03:37:17.661Z,11.15
2022-10-17T03:38:17.675Z,11.12
2022-10-17T03:39:17.650Z,11.18
2022-10-17T03:40:17.644Z,11.11
2022-10-17T03:41:17.702Z,11.13
2022-10-17T03:42:17.615Z,11.11
2022-10-17T03:43:17.606Z,11.13
2022-10-17T03:44:17.608Z,11.13
2022-10-17T03:45:17.592Z,11.09
2022-10-17T03:47:17.579Z,11.11
2022-10-17T03:48:17.601Z,11.12
2022-10-17T03:49:17.563Z,11.09
2022-10-17T03:50:17.556Z,11.03
2022-10-17T03:51:17.558Z,11.03
2022-10-17T03:52:17.545Z,10.98
2022-10-17T03:53:17.542Z,11.09
2022-10-17T03:54:17.621Z,11.03
2022-10-17T03:55:17.520Z,11.11
2022-10-17T03:56:17.540Z,11.05
2022-10-17T03:57:17.492Z,11.08
2022-10-17T03:58:17.489Z,11.08
2022-10-17T03:59:17.500Z,11.01
2022-10-17T04:00:17.475Z,10.93
2022-10-17T04:01:17.521Z,10.79
2022-10-17T04:02:17.466Z,10.85
2022-10-17T04:03:17.519Z,10.85
2022-10-17T04:04:17.437Z,10.83
2022-10-17T04:05:17.468Z,10.80
2022-10-17T04:06:17.433Z,10.76
2022-10-17T04:07:17.497Z,10.85
2022-10-17T04:08:17.418Z,10.85
2022-10-17T04:09:17.410Z,10.95
2022-10-17T04:10:17.400Z,10.90
2022-10-17T04:11:17.410Z,10.85
2022-10-17T04:12:17.373Z,10.85
2022-10-17T04:13:17.361Z,10.87
2022-10-17T04:14:17.355Z,10.98
2022-10-17T04:15:17.349Z,10.85
2022-10-17T04:16:17.379Z,10.83
2022-10-17T04:17:17.379Z,10.90
2022-10-17T04:18:17.325Z,10.83
2022-10-17T04:19:17.316Z,10.86
2022-10-17T04:20:17.320Z,10.86
2022-10-17T04:21:17.312Z,10.82
2022-10-17T04:22:17.306Z,10.87
2022-10-17T04:23:17.316Z,10.85
2022-10-17T04:24:17.284Z,10.83
2022-10-17T04:25:17.270Z,10.82
2022-10-17T04:26:17.266Z,10.83
2022-10-17T04:27:17.259Z,10.79
2022-10-17T04:28:17.332Z,10.85
2022-10-17T04:29:17.262Z,10.82
2022-10-17T04:30:17.225Z,10.79
2022-10-17T04:31:17.219Z,10.72
2022-10-17T04:32:17.220Z,10.65
2022-10-17T04:33:17.205Z,10.72
2022-10-17T04:34:17.201Z,10.76
2022-10-17T04:35:17.208Z,10.70
2022-10-17T04:36:17.181Z,10.67
2022-10-17T04:37:17.202Z,10.78
2022-10-17T04:38:17.265Z,10.75
2022-10-17T04:39:17.159Z,10.70
2022-10-17T04:40:17.345Z,10.72
2022-10-17T04:41:17.172Z,10.75
2022-10-17T04:42:17.144Z,10.68
2022-10-17T04:43:17.121Z,10.75
2022-10-17T04:44:17.152Z,10.60
2022-10-17T04:45:17.117Z,10.62
2022-10-17T04:46:17.106Z,10.65
2022-10-17T04:47:17.153Z,10.61
2022-10-17T04:48:17.256Z,10.61
2022-10-17T04:49:17.091Z,10.54
2022-10-17T04:50:17.071Z,10.68
2022-10-17T04:51:17.549Z,10.62
2022-10-17T04:52:17.055Z,10.62
2022-10-17T04:53:17.066Z,10.70
2022-10-17T04:54:17.043Z,10.70
2022-10-17T04:55:17.023Z,10.75
2022-10-17T04:56:17.039Z,10.76
2022-10-17T04:57:17.033Z,10.76
2022-10-17T04:58:16.993Z,10.79
2022-10-17T04:59:16.985Z,10.79
2022-10-17T05:00:16.996Z,10.73
2022-10-17T05:01:17.065Z,10.85
2022-10-17T05:02:17.026Z,10.83
2022-10-17T05:03:16.968Z,10.95
2022-10-17T05:04:19.883Z,10.98
2022-10-17T05:05:17.954Z,10.98
2022-10-17T05:06:16.948Z,10.98
2022-10-17T05:07:16.956Z,11.00
2022-10-17T05:08:16.945Z,10.98
2022-10-17T05:09:16.912Z,11.01
2022-10-17T05:10:16.910Z,11.16
2022-10-17T05:11:16.904Z,11.12
2022-10-17T05:12:16.954Z,11.12
2022-10-17T05:13:16.887Z,11.15
2022-10-17T05:14:16.868Z,11.15
2022-10-17T05:15:16.867Z,11.16
2022-10-17T05:16:16.857Z,11.18
2022-10-17T05:17:16.860Z,11.19
2022-10-17T05:18:16.876Z,11.16
2022-10-17T05:19:16.835Z,10.98
2022-10-17T05:20:16.836Z,10.94
2022-10-17T05:21:16.821Z,10.72
2022-10-17T05:22:16.828Z,10.73
2022-10-17T05:23:16.810Z,10.61
2022-10-17T05:24:16.827Z,10.54
2022-10-17T05:25:16.788Z,10.45
2022-10-17T05:26:16.775Z,10.52
2022-10-17T05:27:16.778Z,10.60
2022-10-17T05:28:16.756Z,10.60
2022-10-17T05:29:16.754Z,10.61
2022-10-17T05:30:16.780Z,10.54
2022-10-17T05:31:16.757Z,10.49
2022-10-17T05:32:16.749Z,10.55
2022-10-17T05:33:16.720Z,10.60
2022-10-17T05:34:16.713Z,10.55
2022-10-17T05:35:16.706Z,10.57
2022-10-17T05:36:16.718Z,10.58
2022-10-17T05:37:16.700Z,10.52
2022-10-17T05:38:19.555Z,10.49
2022-10-17T05:39:16.668Z,10.54
2022-10-17T05:40:17.581Z,10.45
2022-10-17T05:41:17.526Z,10.35
2022-10-17T05:42:18.271Z,10.48
2022-10-17T05:43:17.990Z,10.46
2022-10-17T05:44:16.710Z,10.58
2022-10-17T05:45:16.629Z,10.38
2022-10-17T05:46:16.615Z,10.55
2022-10-17T05:47:17.253Z,10.42
2022-10-17T05:48:16.647Z,10.45
2022-10-17T05:49:31.998Z,10.57
2022-10-17T05:50:17.579Z,10.54
2022-10-17T05:51:16.571Z,10.39
2022-10-17T05:52:16.567Z,10.38
2022-10-17T05:53:16.556Z,10.31
2022-10-17T05:54:16.574Z,10.36
2022-10-17T05:55:16.566Z,10.27
2022-10-17T05:56:16.546Z,10.28
2022-10-17T05:57:16.551Z,10.28
2022-10-17T05:58:22.179Z,10.24
2022-10-17T05:59:17.529Z,10.18
2022-10-17T06:00:16.502Z,10.27
2022-10-17T06:01:16.520Z,10.27
2022-10-17T06:02:16.616Z,10.45
2022-10-17T06:03:16.477Z,10.42
2022-10-17T06:04:16.489Z,10.52
2022-10-17T06:05:16.503Z,10.45
2022-10-17T06:06:16.541Z,10.42
2022-10-17T06:07:16.444Z,10.46
2022-10-17T06:08:16.442Z,10.48
2022-10-17T06:09:16.472Z,10.43
2022-10-17T06:10:16.651Z,10.46
2022-10-17T06:11:16.427Z,10.43
2022-10-17T06:12:16.415Z,10.48
2022-10-17T06:13:16.472Z,10.43
2022-10-17T06:14:16.395Z,10.42
2022-10-17T06:15:16.430Z,10.45
2022-10-17T06:16:16.394Z,10.41
2022-10-17T06:17:16.537Z,10.55
2022-10-17T06:18:16.362Z,10.52
2022-10-17T06:19:16.356Z,10.68
2022-10-17T06:20:16.364Z,10.72
2022-10-17T06:21:16.387Z,10.62
2022-10-17T06:22:16.325Z,10.64
2022-10-17T06:23:16.337Z,10.65
2022-10-17T06:24:16.316Z,10.64
2022-10-17T06:25:16.305Z,10.73
2022-10-17T06:26:16.306Z,10.60
2022-10-17T06:27:16.317Z,10.75
2022-10-17T06:28:16.290Z,10.80
2022-10-17T06:29:16.275Z,10.82
2022-10-17T06:30:16.275Z,10.78
2022-10-17T06:31:16.273Z,10.95
2022-10-17T06:32:16.252Z,11.11
2022-10-17T06:33:16.284Z,11.13
2022-10-17T06:34:16.235Z,11.05
2022-10-17T06:35:16.232Z,11.11
2022-10-17T06:36:16.239Z,11.03
2022-10-17T06:37:16.243Z,11.00
2022-10-17T06:38:16.202Z,11.05
2022-10-17T06:39:16.196Z,11.12
2022-10-17T06:40:16.206Z,11.11
2022-10-17T06:41:16.173Z,11.09
2022-10-17T06:42:16.170Z,11.19
2022-10-17T06:43:16.220Z,11.28
2022-10-17T06:44:16.151Z,11.31
2022-10-17T06:45:16.156Z,11.51
2022-10-17T06:46:16.126Z,11.64
2022-10-17T06:47:17.899Z,11.89
2022-10-17T06:48:16.142Z,11.91
2022-10-17T06:49:16.143Z,12.11
2022-10-17T06:50:16.106Z,12.44
2022-10-17T06:51:16.106Z,12.55
2022-10-17T06:52:16.081Z,12.66
2022-10-17T06:53:16.124Z,12.81
2022-10-17T06:54:16.080Z,13.11
2022-10-17T06:55:19.595Z,13.08
2022-10-17T06:56:17.068Z,13.27
2022-10-17T06:57:16.043Z,13.40
2022-10-17T06:58:16.035Z,13.55
2022-10-17T06:59:16.032Z,13.58
2022-10-17T07:00:16.169Z,13.55
2022-10-17T07:01:16.078Z,13.57
2022-10-17T07:02:16.003Z,13.29
2022-10-17T07:03:16.004Z,12.91
2022-10-17T07:04:16.009Z,12.91
2022-10-17T07:05:16.014Z,12.71
2022-10-17T07:06:15.976Z,12.77
2022-10-17T07:07:15.993Z,12.88
2022-10-17T07:08:15.962Z,12.98
2022-10-17T07:09:16.059Z,12.93
2022-10-17T07:10:15.946Z,12.79
2022-10-17T07:11:15.937Z,12.88
2022-10-17T07:12:15.940Z,12.80
2022-10-17T07:13:15.942Z,12.91
2022-10-17T07:14:15.904Z,12.93
2022-10-17T07:15:15.897Z,12.87
2022-10-17T07:16:15.886Z,12.99
2022-10-17T07:17:15.940Z,12.98
2022-10-17T07:18:15.883Z,12.90
2022-10-17T07:19:15.868Z,12.93
2022-10-17T07:20:15.854Z,12.76
2022-10-17T07:21:15.857Z,12.61
2022-10-17T07:22:15.880Z,12.51
2022-10-17T07:23:15.834Z,12.41
2022-10-17T07:24:15.827Z,12.44
2022-10-17T07:25:15.832Z,12.44
2022-10-17T07:26:15.812Z,12.44
2022-10-17T07:27:15.829Z,12.54
2022-10-17T07:28:15.861Z,12.55
2022-10-17T07:29:15.843Z,12.55
2022-10-17T07:30:15.814Z,12.53
2022-10-17T07:31:15.773Z,12.51
2022-10-17T07:32:15.757Z,12.62
2022-10-17T07:33:15.800Z,12.65
2022-10-17T07:34:15.789Z,13.29
2022-10-17T07:35:15.735Z,14.28
2022-10-17T07:36:16.283Z,15.14
2022-10-17T07:37:15.725Z,15.41
2022-10-17T07:38:15.708Z,15.69
2022-10-17T07:39:15.704Z,15.96
2022-10-17T07:40:15.744Z,16.46
2022-10-17T07:41:19.271Z,16.21
2022-10-17T07:42:16.688Z,15.87
2022-10-17T07:43:15.704Z,15.83
2022-10-17T07:44:15.659Z,15.90
2022-10-17T07:45:15.680Z,16.74
2022-10-17T07:46:15.653Z,17.79
2022-10-17T07:47:15.641Z,18.33
2022-10-17T07:48:15.618Z,19.04
2022-10-17T07:49:15.603Z,19.23
2022-10-17T07:50:15.655Z,19.53
2022-10-17T07:51:15.613Z,19.62
2022-10-17T07:52:15.594Z,19.79
2022-10-17T07:53:15.613Z,20.33
2022-10-17T07:54:15.563Z,20.44
2022-10-17T07:55:15.585Z,20.56
2022-10-17T07:56:15.600Z,20.83
2022-10-17T07:57:15.541Z,21.18
2022-10-17T07:58:15.626Z,21.50
2022-10-17T07:59:15.526Z,21.62
2022-10-17T08:00:15.510Z,21.56
2022-10-17T08:01:16.117Z,21.74
2022-10-17T08:02:15.597Z,22.07
2022-10-17T08:03:15.514Z,22.37
2022-10-17T08:04:15.488Z,22.66
2022-10-17T08:05:15.497Z,23.14
2022-10-17T08:06:15.497Z,23.56
2022-10-17T08:07:22.132Z,23.73
2022-10-17T08:08:16.477Z,23.48
2022-10-17T08:09:15.454Z,23.34
2022-10-17T08:10:15.426Z,22.98
2022-10-17T08:11:15.440Z,22.46
2022-10-17T08:12:15.415Z,22.52
2022-10-17T08:13:15.408Z,22.40
2022-10-17T08:14:15.451Z,22.16
2022-10-17T08:15:15.391Z,21.82
2022-10-17T08:16:15.384Z,21.51
2022-10-17T08:17:15.378Z,21.38
2022-10-17T08:18:15.391Z,21.40
2022-10-17T08:19:15.406Z,21.40
2022-10-17T08:20:15.353Z,21.51
2022-10-17T08:21:15.387Z,21.56
2022-10-17T08:22:15.363Z,21.62
2022-10-17T08:23:15.335Z,21.98
2022-10-17T08:24:15.311Z,22.33
2022-10-17T08:25:15.310Z,22.59
2022-10-17T08:26:15.302Z,22.68
2022-10-17T08:27:15.327Z,22.36
2022-10-17T08:28:15.289Z,22.12
2022-10-17T08:29:15.287Z,22.16
2022-10-17T08:30:15.320Z,21.94
2022-10-17T08:31:15.289Z,21.63
2022-10-17T08:32:15.265Z,21.84
2022-10-17T08:33:15.283Z,22.16
2022-10-17T08:34:15.248Z,22.16
2022-10-17T08:35:15.237Z,22.11
2022-10-17T08:36:15.249Z,22.55
2022-10-17T08:37:15.231Z,23.11
2022-10-17T08:38:16.015Z,22.67
2022-10-17T08:39:15.214Z,22.83
2022-10-17T08:40:15.191Z,23.37
2022-10-17T08:41:15.184Z,24.07
2022-10-17T08:42:15.223Z,24.59
2022-10-17T08:43:15.168Z,25.16
2022-10-17T08:44:15.163Z,25.11
2022-10-17T08:45:15.152Z,25.06
2022-10-17T08:47:15.196Z,25.46
2022-10-17T08:48:15.138Z,25.82
2022-10-17T08:49:15.137Z,26.11
2022-10-17T08:50:15.135Z,26.21
2022-10-17T08:51:15.109Z,26.60
2022-10-17T08:52:15.105Z,26.89
2022-10-17T08:53:15.086Z,26.89
2022-10-17T08:54:15.084Z,26.68
2022-10-17T08:55:15.154Z,26.88
2022-10-17T08:56:19.890Z,27.26
2022-10-17T08:57:16.085Z,27.38
2022-10-17T08:58:15.050Z,27.27
2022-10-17T08:59:15.271Z,27.54
2022-10-17T09:00:15.027Z,27.60
2022-10-17T09:01:15.146Z,28.00
2022-10-17T09:02:15.018Z,28.56
2022-10-17T09:03:15.111Z,28.94
2022-10-17T09:04:15.014Z,29.21
2022-10-17T09:05:15.001Z,29.09
2022-10-17T09:06:14.991Z,29.24
2022-10-17T09:07:14.984Z,29.39
2022-10-17T09:08:14.989Z,28.71
2022-10-17T09:09:14.999Z,27.95
2022-10-17T09:10:14.961Z,27.82
2022-10-17T09:11:14.952Z,28.03
2022-10-17T09:12:14.943Z,28.20
2022-10-17T09:13:15.009Z,28.22
2022-10-17T09:14:14.956Z,28.35
2022-10-17T09:15:14.909Z,28.12
2022-10-17T09:16:14.910Z,28.56
2022-10-17T09:17:14.890Z,28.84
2022-10-17T09:18:16.696Z,29.00
2022-10-17T09:19:14.888Z,29.09
2022-10-17T09:20:14.900Z,29.03
2022-10-17T09:21:14.872Z,28.53
2022-10-17T09:22:14.867Z,27.41
2022-10-17T09:23:14.852Z,27.41
2022-10-17T09:24:16.112Z,27.38
2022-10-17T09:25:14.893Z,26.64
2022-10-17T09:26:14.838Z,26.95
2022-10-17T09:27:14.831Z,27.32
2022-10-17T09:28:14.810Z,27.10
2022-10-17T09:29:14.807Z,27.23
2022-10-17T09:30:26.918Z,27.80
2022-10-17T09:31:15.799Z,27.58
2022-10-17T09:32:14.785Z,27.07
2022-10-17T09:33:28.268Z,26.98
2022-10-17T09:34:15.774Z,27.38
2022-10-17T09:35:14.762Z,27.93
2022-10-17T09:36:14.776Z,28.10
2022-10-17T09:37:14.747Z,27.68
2022-10-17T09:38:14.751Z,27.23
2022-10-17T09:39:14.734Z,27.04
2022-10-17T09:40:14.735Z,26.56
2022-10-17T09:42:15.726Z,26.93
2022-10-17T09:43:14.698Z,27.04
2022-10-17T09:44:14.689Z,27.34
2022-10-17T09:45:14.691Z,27.58
2022-10-17T09:46:14.689Z,27.75
2022-10-17T09:47:14.675Z,27.68
2022-10-17T09:48:14.699Z,27.82
2022-10-17T09:49:16.508Z,27.45
2022-10-17T09:50:14.690Z,27.12
2022-10-17T09:51:25.804Z,27.31
2022-10-17T09:52:15.639Z,27.37
2022-10-17T09:53:14.642Z,27.66
2022-10-17T09:54:14.648Z,27.26
2022-10-17T09:55:14.623Z,27.63
2022-10-17T09:56:14.599Z,27.47
2022-10-17T09:57:14.604Z,27.07
2022-10-17T09:58:14.582Z,27.20
2022-10-17T09:59:14.586Z,27.30
2022-10-17T10:01:16.451Z,27.05
2022-10-17T10:02:14.567Z,27.34
2022-10-17T10:03:14.560Z,27.25
2022-10-17T10:04:14.555Z,27.04
2022-10-17T10:05:14.593Z,26.93
2022-10-17T10:06:14.558Z,26.98
2022-10-17T10:07:14.526Z,26.58
2022-10-17T10:08:14.527Z,26.75
2022-10-17T10:09:14.564Z,27.05
2022-10-17T10:10:14.510Z,27.08
2022-10-17T10:11:14.625Z,27.34
2022-10-17T10:12:14.491Z,27.53
2022-10-17T10:13:14.497Z,27.22
2022-10-17T10:14:14.480Z,26.95
2022-10-17T10:15:14.514Z,26.86
2022-10-17T10:16:14.466Z,26.43
2022-10-17T10:17:14.463Z,26.65
2022-10-17T10:18:14.441Z,26.33
2022-10-17T10:19:14.473Z,26.30
2022-10-17T10:20:14.425Z,26.41
2022-10-17T10:21:14.427Z,26.19
2022-10-17T10:22:14.422Z,26.53
2022-10-17T10:23:14.456Z,26.86
2022-10-17T10:24:14.402Z,27.17
2022-10-17T10:25:14.390Z,27.60
2022-10-17T10:26:16.789Z,28.00
2022-10-17T10:27:14.373Z,28.12
2022-10-17T10:28:14.386Z,28.42
2022-10-17T10:29:14.365Z,28.35
2022-10-17T10:30:14.360Z,28.50
2022-10-17T10:31:14.394Z,28.42
2022-10-17T10:32:14.380Z,28.27
2022-10-17T10:33:14.342Z,28.54
2022-10-17T10:34:14.359Z,28.65
2022-10-17T10:35:14.329Z,28.86
2022-10-17T10:36:14.905Z,29.13
2022-10-17T10:37:16.165Z,29.00
2022-10-17T10:38:14.312Z,28.27
2022-10-17T10:39:14.352Z,27.75
2022-10-17T10:40:14.311Z,27.42
2022-10-17T10:41:14.302Z,27.64
2022-10-17T10:42:14.272Z,27.58
2022-10-17T10:43:14.270Z,27.34
2022-10-17T10:44:14.263Z,27.16
2022-10-17T10:45:19.121Z,27.15
2022-10-17T10:46:15.307Z,27.61
2022-10-17T10:47:14.240Z,27.88
2022-10-17T10:48:14.240Z,27.85
2022-10-17T10:49:14.230Z,28.10
2022-10-17T10:50:14.225Z,27.73
2022-10-17T10:51:14.290Z,28.00
2022-10-17T10:52:14.233Z,28.20
2022-10-17T10:53:14.204Z,28.05
2022-10-17T10:54:14.215Z,27.94
2022-10-17T10:55:14.186Z,27.79
2022-10-17T10:56:14.175Z,28.00
2022-10-17T10:57:14.170Z,28.71
2022-10-17T10:58:14.161Z,28.81
2022-10-17T10:59:14.189Z,28.81
2022-10-17T11:00:14.180Z,28.65
2022-10-17T11:01:14.214Z,28.87
2022-10-17T11:02:14.178Z,28.69
2022-10-17T11:03:14.200Z,29.12
2022-10-17T11:04:14.128Z,29.15
2022-10-17T11:05:14.175Z,29.17
2022-10-17T11:06:14.106Z,28.80
2022-10-17T11:07:14.089Z,28.96
2022-10-17T11:08:14.185Z,28.71
2022-10-17T11:09:14.923Z,28.12
2022-10-17T11:10:14.075Z,28.03
2022-10-17T11:11:14.083Z,27.93
2022-10-17T11:12:14.068Z,27.87
2022-10-17T11:13:14.162Z,27.75
2022-10-17T11:14:14.061Z,27.73
2022-10-17T11:15:14.045Z,27.79
2022-10-17T11:16:14.040Z,27.93
2022-10-17T11:17:14.049Z,27.87
2022-10-17T11:18:14.027Z,28.17
2022-10-17T11:19:14.042Z,28.05
2022-10-17T11:20:14.017Z,27.93
2022-10-17T11:21:14.159Z,28.31
2022-10-17T11:22:13.987Z,28.62
2022-10-17T11:23:14.327Z,28.69
2022-10-17T11:24:14.171Z,28.50
2022-10-17T11:25:14.020Z,28.80
2022-10-17T11:26:13.989Z,29.19
2022-10-17T11:27:14.071Z,29.22
2022-10-17T11:28:13.969Z,29.33
2022-10-17T11:29:13.982Z,29.19
2022-10-17T11:30:14.117Z,29.39
2022-10-17T11:31:14.178Z,29.41
2022-10-17T11:32:14.052Z,29.43
2022-10-17T11:33:13.929Z,29.39
2022-10-17T11:34:13.917Z,29.29
2022-10-17T11:35:13.915Z,29.43
2022-10-17T11:36:13.891Z,29.36
2022-10-17T11:37:14.845Z,29.33
2022-10-17T11:38:13.891Z,28.89
2022-10-17T11:39:13.870Z,28.46
2022-10-17T11:40:14.020Z,28.71
2022-10-17T11:41:14.011Z,28.81
2022-10-17T11:42:13.876Z,28.90
2022-10-17T11:43:13.932Z,28.89
2022-10-17T11:44:13.835Z,28.71
2022-10-17T11:45:13.835Z,28.74
2022-10-17T11:46:14.884Z,28.50
2022-10-17T11:47:13.849Z,28.24
2022-10-17T11:48:13.998Z,27.69
2022-10-17T11:49:18.997Z,28.30
2022-10-17T11:52:19.494Z,28.69
2022-10-17T11:53:14.768Z,28.68
2022-10-17T11:54:13.762Z,28.32
2022-10-17T11:55:13.801Z,28.83
2022-10-17T11:56:13.754Z,28.94
2022-10-17T11:57:14.758Z,29.02
2022-10-17T11:58:13.775Z,29.18
2022-10-17T11:59:13.896Z,29.06
2022-10-17T12:00:13.927Z,28.89
2022-10-17T12:01:13.722Z,28.90
2022-10-17T12:02:13.741Z,28.66
2022-10-17T12:03:13.725Z,29.00
2022-10-17T12:04:13.760Z,29.15
2022-10-17T12:05:13.674Z,29.52
2022-10-17T12:06:13.702Z,29.68
2022-10-17T12:07:13.676Z,30.07
2022-10-17T12:08:22.426Z,29.92
2022-10-17T12:09:13.657Z,29.98
2022-10-17T12:10:13.648Z,29.33
2022-10-17T12:11:13.656Z,29.00
2022-10-17T12:12:13.680Z,28.81
2022-10-17T12:13:13.666Z,28.24
2022-10-17T12:14:13.666Z,28.40
2022-10-17T12:15:13.626Z,28.54
2022-10-17T12:16:17.452Z,28.44
2022-10-17T12:17:13.634Z,28.17
2022-10-17T12:18:13.588Z,28.01
2022-10-17T12:19:13.796Z,27.73
2022-10-17T12:20:13.618Z,27.82
2022-10-17T12:21:13.569Z,27.75
2022-10-17T12:22:13.591Z,27.78
2022-10-17T12:23:13.609Z,27.75
2022-10-17T12:24:18.170Z,27.95
2022-10-17T12:25:15.105Z,28.01
2022-10-17T12:26:13.576Z,28.27
2022-10-17T12:27:13.532Z,27.97
2022-10-17T12:28:13.529Z,28.09
2022-10-17T12:29:13.568Z,28.28
2022-10-17T12:30:13.525Z,28.35
2022-10-17T12:31:13.578Z,28.54
2022-10-17T12:32:13.479Z,28.52
2022-10-17T12:33:13.487Z,28.49
2022-10-17T12:34:13.472Z,28.56
2022-10-17T12:35:13.498Z,28.57
2022-10-17T12:36:13.480Z,28.69
2022-10-17T12:37:13.479Z,28.49
2022-10-17T12:38:13.442Z,28.03
2022-10-17T12:39:13.445Z,28.12
2022-10-17T12:40:13.438Z,28.00
2022-10-17T12:41:13.500Z,27.98
2022-10-17T12:42:13.454Z,28.12
2022-10-17T12:43:13.501Z,27.66
2022-10-17T12:44:13.476Z,27.69
2022-10-17T12:45:13.578Z,27.72
2022-10-17T12:46:13.389Z,27.64
2022-10-17T12:47:13.397Z,27.50
2022-10-17T12:48:13.364Z,27.13
2022-10-17T12:49:13.358Z,27.10
2022-10-17T12:50:13.355Z,27.15
2022-10-17T12:52:14.363Z,27.50
2022-10-17T12:53:16.917Z,27.72
2022-10-17T12:54:14.334Z,28.12
2022-10-17T12:55:14.238Z,28.20
2022-10-17T12:56:13.310Z,28.20
2022-10-17T12:57:13.310Z,28.24
2022-10-17T12:58:13.328Z,28.17
2022-10-17T12:59:13.335Z,28.07
2022-10-17T13:00:13.270Z,27.85